createdAt,value
2018-08-03T00:01:26.589Z,22.20
2018-08-03T00:03:59.986Z,22.10
2018-08-03T00:06:28.782Z,22.10
2018-08-03T00:09:13.535Z,22.00
2018-08-03T00:11:41.334Z,22.00
2018-08-03T00:14:09.022Z,22.00
2018-08-03T00:16:36.848Z,21.80
2018-08-03T00:19:04.635Z,21.80
2018-08-03T00:21:32.465Z,21.80
2018-08-03T00:24:00.312Z,21.70
2018-08-03T00:26:28.219Z,21.60
2018-08-03T00:28:55.975Z,21.60
2018-08-03T00:31:23.700Z,21.50
2018-08-03T00:33:51.422Z,21.50
2018-08-03T00:36:19.282Z,21.50
2018-08-03T00:38:47.164Z,21.50
2018-08-03T00:41:15.024Z,21.50
2018-08-03T00:43:43.042Z,21.50
2018-08-03T00:46:10.822Z,21.40
2018-08-03T00:48:38.704Z,21.40
2018-08-03T00:51:06.521Z,21.30
2018-08-03T00:53:34.388Z,21.30
2018-08-03T00:56:02.187Z,21.20
2018-08-03T00:58:29.980Z,21.20
2018-08-03T01:03:25.533Z,21.10
2018-08-03T01:05:57.067Z,21.00
2018-08-03T01:08:24.887Z,21.00
2018-08-03T01:10:52.673Z,21.00
2018-08-03T01:13:20.483Z,21.00
2018-08-03T01:15:48.272Z,21.00
2018-08-03T01:18:16.116Z,21.00
2018-08-03T01:20:43.956Z,21.00
2018-08-03T01:23:11.856Z,21.00
2018-08-03T01:25:39.690Z,21.00
2018-08-03T01:28:07.439Z,21.10
2018-08-03T01:30:35.337Z,20.90
2018-08-03T01:33:03.170Z,20.90
2018-08-03T01:35:30.997Z,20.80
2018-08-03T01:37:58.996Z,20.80
2018-08-03T01:40:26.822Z,20.80
2018-08-03T01:42:54.773Z,20.80
2018-08-03T01:45:22.547Z,20.90
2018-08-03T01:47:50.496Z,21.00
2018-08-03T01:50:18.342Z,21.10
2018-08-03T01:52:46.270Z,21.10
2018-08-03T01:55:14.069Z,21.00
2018-08-03T01:57:41.906Z,20.80
2018-08-03T02:00:09.687Z,20.80
2018-08-03T02:02:37.423Z,20.70
2018-08-03T02:05:05.192Z,20.70
2018-08-03T02:07:33.021Z,20.70
2018-08-03T02:10:00.824Z,20.90
2018-08-03T02:12:28.604Z,20.90
2018-08-03T02:14:56.452Z,20.90
2018-08-03T02:17:24.202Z,20.80
2018-08-03T02:22:19.620Z,20.50
2018-08-03T02:24:47.476Z,20.50
2018-08-03T02:27:15.292Z,20.40
2018-08-03T02:29:43.204Z,20.30
2018-08-03T02:32:11.115Z,20.20
2018-08-03T02:34:38.982Z,20.20
2018-08-03T02:37:06.771Z,20.30
2018-08-03T02:39:34.561Z,20.30
2018-08-03T02:42:02.698Z,20.40
2018-08-03T02:44:30.461Z,20.40
2018-08-03T02:46:58.384Z,20.40
2018-08-03T02:49:26.221Z,20.30
2018-08-03T02:51:53.994Z,20.20
2018-08-03T02:54:21.873Z,20.10
2018-08-03T02:59:17.316Z,20.00
2018-08-03T03:01:45.042Z,19.90
2018-08-03T03:04:12.733Z,20.00
2018-08-03T03:06:40.485Z,19.90
2018-08-03T03:09:09.828Z,20.00
2018-08-03T03:11:37.642Z,19.90
2018-08-03T03:14:05.820Z,19.90
2018-08-03T03:16:33.550Z,19.90
2018-08-03T03:19:01.412Z,19.80
2018-08-03T03:21:29.097Z,19.80
2018-08-03T03:23:56.859Z,19.70
2018-08-03T03:26:24.657Z,19.60
2018-08-03T03:28:52.389Z,19.70
2018-08-03T03:31:20.058Z,19.70
2018-08-03T03:33:47.840Z,19.80
2018-08-03T03:36:15.672Z,19.70
2018-08-03T03:38:43.437Z,19.80
2018-08-03T03:41:11.262Z,19.70
2018-08-03T03:43:39.107Z,19.70
2018-08-03T03:46:07.486Z,19.80
2018-08-03T03:48:35.275Z,19.80
2018-08-03T03:51:03.196Z,20.00
2018-08-03T03:53:30.883Z,20.00
2018-08-03T03:55:58.706Z,20.10
2018-08-03T03:58:26.566Z,19.90
2018-08-03T04:00:54.418Z,20.00
2018-08-03T04:03:22.303Z,20.00
2018-08-03T04:05:49.980Z,19.90
2018-08-03T04:08:17.960Z,19.80
2018-08-03T04:10:45.770Z,19.80
2018-08-03T04:13:13.572Z,19.80
2018-08-03T04:15:41.310Z,19.90
2018-08-03T04:18:12.618Z,19.90
2018-08-03T04:20:40.484Z,19.90
2018-08-03T04:23:08.321Z,19.90
2018-08-03T04:25:36.042Z,19.90
2018-08-03T04:28:03.818Z,20.00
2018-08-03T04:30:31.723Z,20.00
2018-08-03T04:32:59.425Z,20.00
2018-08-03T04:35:27.155Z,20.10
2018-08-03T04:37:54.960Z,20.10
2018-08-03T04:40:22.736Z,20.20
2018-08-03T04:42:50.425Z,20.20
2018-08-03T04:45:18.349Z,20.20
2018-08-03T04:47:46.150Z,20.30
2018-08-03T04:50:13.886Z,20.30
2018-08-03T04:52:41.665Z,20.50
2018-08-03T04:55:09.656Z,20.60
2018-08-03T04:57:37.504Z,20.70
2018-08-03T05:00:05.531Z,20.90
2018-08-03T05:02:33.544Z,20.90
2018-08-03T05:05:01.464Z,21.00
2018-08-03T05:07:29.274Z,21.10
2018-08-03T05:09:57.196Z,21.00
2018-08-03T05:12:24.955Z,21.20
2018-08-03T05:14:52.817Z,21.40
2018-08-03T05:17:20.732Z,21.60
2018-08-03T05:19:48.522Z,21.60
2018-08-03T05:22:16.360Z,21.70
2018-08-03T05:24:44.243Z,21.80
2018-08-03T05:27:12.088Z,21.80
2018-08-03T05:29:39.784Z,21.90
2018-08-03T05:32:07.562Z,21.90
2018-08-03T05:34:35.370Z,21.90
2018-08-03T05:37:03.159Z,21.90
2018-08-03T05:39:31.020Z,21.80
2018-08-03T05:41:58.883Z,21.90
2018-08-03T05:44:26.801Z,21.90
2018-08-03T05:46:54.640Z,21.80
2018-08-03T05:49:22.456Z,21.90
2018-08-03T05:51:50.407Z,21.90
2018-08-03T05:54:18.160Z,21.90
2018-08-03T05:56:46.075Z,21.90
2018-08-03T05:59:13.916Z,21.90
2018-08-03T06:01:41.990Z,22.00
2018-08-03T06:04:09.781Z,22.10
2018-08-03T06:06:37.568Z,22.10
2018-08-03T06:09:07.915Z,22.30
2018-08-03T06:11:35.972Z,22.40
2018-08-03T06:14:04.416Z,22.40
2018-08-03T06:16:32.422Z,22.50
2018-08-03T06:19:00.216Z,22.50
2018-08-03T06:21:28.325Z,22.70
2018-08-03T06:23:56.055Z,22.90
2018-08-03T06:26:23.860Z,23.20
2018-08-03T06:28:51.843Z,23.60
2018-08-03T06:31:19.593Z,23.70
2018-08-03T06:36:15.484Z,23.80
2018-08-03T06:38:43.341Z,24.10
2018-08-03T06:41:11.216Z,24.90
2018-08-03T06:43:39.138Z,25.60
2018-08-03T06:46:07.031Z,25.80
2018-08-03T06:48:35.084Z,26.10
2018-08-03T06:51:03.014Z,26.70
2018-08-03T06:53:30.823Z,27.50
2018-08-03T06:55:58.598Z,27.60
2018-08-03T06:58:26.341Z,28.20
2018-08-03T07:00:54.290Z,28.80
2018-08-03T07:03:22.008Z,28.90
2018-08-03T07:05:49.728Z,29.00
2018-08-03T07:08:17.617Z,29.10
2018-08-03T07:10:45.378Z,29.40
2018-08-03T07:13:13.267Z,29.20
2018-08-03T07:15:41.077Z,29.20
2018-08-03T07:18:08.971Z,29.00
2018-08-03T07:20:37.138Z,29.20
2018-08-03T07:23:04.967Z,28.90
2018-08-03T07:25:43.299Z,28.90
2018-08-03T07:28:11.181Z,29.00
2018-08-03T07:30:38.972Z,29.20
2018-08-03T07:33:06.893Z,29.40
2018-08-03T07:35:34.707Z,29.60
2018-08-03T07:38:02.491Z,29.30
2018-08-03T07:40:30.199Z,29.70
2018-08-03T07:42:58.078Z,30.00
2018-08-03T07:45:25.931Z,30.20
2018-08-03T07:47:53.716Z,30.30
2018-08-03T07:50:21.544Z,30.20
2018-08-03T07:52:49.332Z,30.30
2018-08-03T07:55:17.208Z,30.40
2018-08-03T07:57:45.083Z,30.70
2018-08-03T08:00:12.991Z,31.00
2018-08-03T08:05:08.966Z,30.30
2018-08-03T08:07:36.807Z,30.50
2018-08-03T08:10:04.972Z,30.60
2018-08-03T08:12:32.793Z,30.70
2018-08-03T08:15:00.614Z,31.00
2018-08-03T08:17:28.434Z,31.40
2018-08-03T08:19:56.414Z,31.20
2018-08-03T08:22:24.293Z,31.30
2018-08-03T08:24:52.157Z,31.20
2018-08-03T08:27:20.035Z,31.40
2018-08-03T08:29:47.847Z,31.40
2018-08-03T08:34:43.610Z,31.10
2018-08-03T08:37:11.425Z,31.20
2018-08-03T08:39:39.500Z,31.40
2018-08-03T08:42:08.303Z,31.70
2018-08-03T08:44:36.144Z,31.90
2018-08-03T08:47:03.970Z,32.00
2018-08-03T08:49:31.985Z,32.20
2018-08-03T08:51:59.808Z,32.20
2018-08-03T08:54:27.702Z,31.80
2018-08-03T08:57:03.709Z,31.60
2018-08-03T08:59:31.674Z,31.80
2018-08-03T09:02:00.507Z,31.80
2018-08-03T09:04:28.494Z,32.00
2018-08-03T09:06:58.334Z,32.30
2018-08-03T09:09:26.202Z,32.50
2018-08-03T09:11:53.989Z,32.30
2018-08-03T09:14:21.880Z,32.40
2018-08-03T09:17:05.787Z,32.40
2018-08-03T09:19:33.666Z,32.20
2018-08-03T09:22:01.668Z,31.90
2018-08-03T09:24:45.503Z,31.80
2018-08-03T09:27:13.785Z,32.00
2018-08-03T09:29:41.733Z,31.90
2018-08-03T09:32:09.523Z,31.40
2018-08-03T09:34:37.508Z,31.50
2018-08-03T09:37:05.467Z,31.30
2018-08-03T09:42:14.501Z,31.50
2018-08-03T09:44:42.298Z,31.80
2018-08-03T09:47:13.747Z,31.70
2018-08-03T09:49:52.885Z,31.80
2018-08-03T09:52:20.746Z,31.40
2018-08-03T09:54:48.779Z,31.40
2018-08-03T09:57:16.614Z,31.60
2018-08-03T09:59:44.562Z,31.70
2018-08-03T10:02:12.380Z,31.50
2018-08-03T10:04:40.485Z,31.20
2018-08-03T10:09:35.927Z,31.50
2018-08-03T10:12:03.701Z,31.60
2018-08-03T10:14:31.663Z,31.50
2018-08-03T10:16:59.776Z,31.40
2018-08-03T10:19:27.825Z,31.70
2018-08-03T10:21:57.052Z,31.90
2018-08-03T10:24:25.286Z,31.80
2018-08-03T10:26:53.351Z,31.90
2018-08-03T10:29:21.170Z,32.00
2018-08-03T10:31:49.224Z,31.90
2018-08-03T10:34:17.291Z,32.10
2018-08-03T10:36:45.332Z,32.30
2018-08-03T10:39:13.410Z,32.40
2018-08-03T10:41:41.534Z,32.50
2018-08-03T10:44:10.689Z,32.50
2018-08-03T10:46:38.726Z,32.40
2018-08-03T10:49:06.964Z,32.30
2018-08-03T10:51:35.993Z,32.20
2018-08-03T10:54:05.576Z,32.30
2018-08-03T10:56:34.404Z,31.90
2018-08-03T10:59:03.633Z,32.10
2018-08-03T11:01:31.780Z,32.30
2018-08-03T11:03:59.671Z,32.50
2018-08-03T11:06:29.892Z,32.60
2018-08-03T11:08:57.915Z,32.90
2018-08-03T11:11:25.821Z,33.10
2018-08-03T11:13:54.740Z,33.10
2018-08-03T11:16:22.688Z,33.30
2018-08-03T11:18:50.592Z,33.30
2018-08-03T11:21:18.487Z,33.30
2018-08-03T11:23:46.441Z,33.30
2018-08-03T11:26:14.426Z,33.30
2018-08-03T11:28:42.600Z,33.30
2018-08-03T11:31:11.646Z,33.00
2018-08-03T11:33:39.517Z,33.10
2018-08-03T11:36:08.118Z,33.10
2018-08-03T11:38:36.915Z,33.00
2018-08-03T11:41:10.654Z,32.80
2018-08-03T11:43:39.331Z,32.50
2018-08-03T11:46:07.515Z,32.20
2018-08-03T11:48:35.896Z,32.00
2018-08-03T11:51:03.839Z,31.90
2018-08-03T11:53:37.420Z,32.30
2018-08-03T11:56:07.235Z,32.50
2018-08-03T11:58:35.351Z,32.70
2018-08-03T12:01:03.345Z,33.00
2018-08-03T12:03:31.111Z,32.90
2018-08-03T12:05:58.925Z,32.70
2018-08-03T12:08:26.774Z,32.70
2018-08-03T12:10:54.611Z,32.50
2018-08-03T12:13:22.455Z,32.30
2018-08-03T12:15:50.345Z,32.20
2018-08-03T12:18:18.320Z,32.30
2018-08-03T12:20:46.757Z,32.60
2018-08-03T12:23:14.557Z,32.60
2018-08-03T12:25:43.721Z,32.60
2018-08-03T12:28:12.196Z,32.50
2018-08-03T12:30:40.122Z,32.50
2018-08-03T12:33:08.020Z,32.50
2018-08-03T12:35:35.935Z,32.50
2018-08-03T12:38:04.448Z,32.80
2018-08-03T12:40:32.465Z,32.90
2018-08-03T12:43:00.163Z,33.10
2018-08-03T12:45:33.994Z,32.80
2018-08-03T12:47:55.913Z,32.60
2018-08-03T12:50:23.780Z,32.40
2018-08-03T12:52:51.729Z,32.40
2018-08-03T12:55:19.546Z,32.40
2018-08-03T12:57:47.377Z,32.50
2018-08-03T13:00:15.186Z,32.70
2018-08-03T13:05:10.707Z,33.20
2018-08-03T13:07:38.782Z,33.40
2018-08-03T13:10:06.622Z,33.60
2018-08-03T13:12:34.718Z,33.80
2018-08-03T13:15:02.643Z,33.80
2018-08-03T13:17:30.694Z,34.00
2018-08-03T13:19:58.600Z,34.30
2018-08-03T13:22:26.552Z,34.40
2018-08-03T13:24:54.693Z,34.30
2018-08-03T13:27:22.706Z,34.30
2018-08-03T13:29:50.642Z,34.30
2018-08-03T13:32:18.606Z,34.10
2018-08-03T13:34:47.544Z,33.90
2018-08-03T13:37:15.467Z,33.70
2018-08-03T13:39:43.953Z,33.70
2018-08-03T13:42:11.936Z,33.60
2018-08-03T13:44:40.188Z,33.60
2018-08-03T13:47:08.731Z,33.50
2018-08-03T13:49:37.088Z,33.60
2018-08-03T13:52:08.385Z,33.60
2018-08-03T13:54:36.741Z,33.60
2018-08-03T13:57:06.658Z,33.80
2018-08-03T13:59:35.142Z,33.70
2018-08-03T14:02:19.344Z,33.70
2018-08-03T14:04:47.607Z,33.80
2018-08-03T14:07:15.360Z,33.90
2018-08-03T14:09:55.324Z,33.90
2018-08-03T14:12:23.254Z,33.90
2018-08-03T14:14:51.139Z,33.90
2018-08-03T14:17:19.096Z,33.90
2018-08-03T14:22:14.774Z,34.00
2018-08-03T14:24:42.660Z,33.80
2018-08-03T14:27:10.589Z,33.60
2018-08-03T14:29:38.613Z,33.60
2018-08-03T14:32:06.851Z,33.40
2018-08-03T14:34:35.450Z,33.30
2018-08-03T14:39:32.030Z,33.00
2018-08-03T14:42:00.866Z,32.90
2018-08-03T14:44:28.736Z,33.00
2018-08-03T14:46:56.694Z,33.00
2018-08-03T14:49:25.876Z,33.10
2018-08-03T14:51:54.009Z,32.90
2018-08-03T14:54:22.388Z,32.70
2018-08-03T14:56:50.397Z,32.80
2018-08-03T14:59:18.391Z,32.80
2018-08-03T15:01:46.429Z,32.70
2018-08-03T15:04:16.160Z,32.80
2018-08-03T15:06:44.961Z,32.70
2018-08-03T15:09:12.784Z,32.90
2018-08-03T15:11:40.794Z,32.90
2018-08-03T15:14:08.775Z,33.10
2018-08-03T15:16:36.648Z,33.20
2018-08-03T15:19:04.764Z,33.20
2018-08-03T15:21:34.304Z,33.30
2018-08-03T15:24:02.148Z,33.40
2018-08-03T15:26:30.843Z,33.40
2018-08-03T15:28:58.754Z,33.50
2018-08-03T15:31:26.629Z,33.50
2018-08-03T15:33:54.394Z,33.50
2018-08-03T15:36:22.239Z,33.50
2018-08-03T15:38:50.108Z,33.50
2018-08-03T15:41:17.805Z,33.60
2018-08-03T15:43:45.723Z,33.60
2018-08-03T15:46:13.477Z,33.60
2018-08-03T15:48:41.320Z,33.50
2018-08-03T15:51:09.223Z,33.40
2018-08-03T15:53:37.102Z,33.50
2018-08-03T15:56:05.060Z,33.40
2018-08-03T15:58:32.786Z,33.10
2018-08-03T16:03:28.432Z,32.80
2018-08-03T16:05:56.234Z,32.80
2018-08-03T16:08:24.127Z,32.70
2018-08-03T16:10:52.180Z,32.60
2018-08-03T16:13:20.030Z,32.40
2018-08-03T16:15:47.850Z,32.40
2018-08-03T16:18:15.661Z,32.40
2018-08-03T16:20:43.600Z,32.50
2018-08-03T16:23:11.504Z,32.50
2018-08-03T16:25:39.432Z,32.50
2018-08-03T16:28:07.355Z,32.60
2018-08-03T16:30:35.422Z,32.50
2018-08-03T16:33:03.358Z,32.50
2018-08-03T16:35:31.247Z,32.00
2018-08-03T16:37:59.217Z,31.90
2018-08-03T16:40:27.014Z,31.70
2018-08-03T16:42:54.891Z,31.80
2018-08-03T16:45:23.587Z,31.80
2018-08-03T16:47:55.963Z,31.70
2018-08-03T16:50:24.936Z,31.50
2018-08-03T16:52:53.440Z,31.60
2018-08-03T16:55:21.861Z,31.60
2018-08-03T16:57:49.649Z,31.50
2018-08-03T17:00:18.368Z,31.30
2018-08-03T17:02:47.406Z,31.30
2018-08-03T17:05:15.266Z,31.40
2018-08-03T17:07:43.114Z,31.30
2018-08-03T17:10:10.949Z,31.30
2018-08-03T17:12:39.054Z,31.30
2018-08-03T17:15:06.947Z,31.20
2018-08-03T17:17:37.986Z,31.20
2018-08-03T17:20:06.003Z,31.20
2018-08-03T17:22:33.860Z,31.10
2018-08-03T17:25:03.679Z,31.10
2018-08-03T17:27:31.534Z,31.00
2018-08-03T17:32:32.751Z,30.90
2018-08-03T17:35:02.584Z,30.70
2018-08-03T17:37:30.576Z,30.70
2018-08-03T17:39:58.569Z,30.70
2018-08-03T17:42:26.951Z,30.50
2018-08-03T17:44:54.856Z,30.40
2018-08-03T17:47:22.738Z,30.40
2018-08-03T17:49:51.509Z,30.30
2018-08-03T17:52:19.470Z,30.30
2018-08-03T17:54:47.509Z,30.20
2018-08-03T17:57:25.696Z,30.20
2018-08-03T17:59:56.735Z,30.10
2018-08-03T18:02:24.677Z,30.10
2018-08-03T18:04:52.788Z,30.00
2018-08-03T18:07:20.898Z,29.90
2018-08-03T18:09:48.706Z,29.90
2018-08-03T18:12:16.512Z,29.90
2018-08-03T18:17:12.013Z,29.70
2018-08-03T18:19:40.235Z,29.60
2018-08-03T18:22:08.201Z,29.60
2018-08-03T18:24:36.444Z,29.50
2018-08-03T18:27:05.349Z,29.40
2018-08-03T18:29:33.532Z,29.30
2018-08-03T18:32:01.597Z,29.30
2018-08-03T18:34:29.725Z,29.20
2018-08-03T18:36:57.969Z,29.00
2018-08-03T18:39:26.009Z,29.00
2018-08-03T18:41:54.549Z,29.00
2018-08-03T18:44:27.131Z,28.90
2018-08-03T18:46:55.039Z,28.80
2018-08-03T18:49:23.349Z,28.80
2018-08-03T18:51:51.466Z,28.80
2018-08-03T18:54:19.396Z,28.70
2018-08-03T18:56:47.644Z,28.60
2018-08-03T18:59:15.485Z,28.50
2018-08-03T19:01:43.448Z,28.50
2018-08-03T19:04:11.514Z,28.40
2018-08-03T19:06:45.349Z,28.40
2018-08-03T19:09:13.161Z,28.30
2018-08-03T19:11:45.933Z,28.30
2018-08-03T19:14:13.791Z,28.20
2018-08-03T19:19:10.032Z,28.10
2018-08-03T19:21:38.623Z,28.00
2018-08-03T19:24:07.021Z,28.10
2018-08-03T19:26:35.604Z,28.10
2018-08-03T19:29:03.761Z,28.00
2018-08-03T19:31:31.655Z,28.00
2018-08-03T19:33:59.835Z,28.00
2018-08-03T19:36:27.966Z,27.90
2018-08-03T19:39:01.270Z,27.90
2018-08-03T19:41:29.121Z,27.90
2018-08-03T19:43:56.891Z,27.90
2018-08-03T19:46:35.826Z,27.80
2018-08-03T19:49:04.298Z,27.70
2018-08-03T19:51:34.559Z,27.60
2018-08-03T19:54:03.002Z,27.60
2018-08-03T19:56:30.954Z,27.50
2018-08-03T19:58:58.882Z,27.50
2018-08-03T20:01:26.833Z,27.40
2018-08-03T20:03:55.740Z,27.40
2018-08-03T20:06:28.410Z,27.40
2018-08-03T20:08:57.442Z,27.30
2018-08-03T20:11:25.581Z,27.20
2018-08-03T20:13:53.542Z,27.10
2018-08-03T20:16:21.606Z,27.10
2018-08-03T20:18:49.553Z,27.10
2018-08-03T20:21:17.374Z,27.00
2018-08-03T20:23:45.269Z,27.00
2018-08-03T20:26:23.628Z,27.00
2018-08-03T20:28:57.667Z,26.90
2018-08-03T20:31:32.637Z,26.80
2018-08-03T20:34:00.680Z,26.70
2018-08-03T20:36:29.133Z,26.60
2018-08-03T20:39:01.116Z,26.50
2018-08-03T20:41:34.186Z,26.50
2018-08-03T20:44:03.890Z,26.40
2018-08-03T20:46:32.373Z,26.40
2018-08-03T20:49:01.052Z,26.40
2018-08-03T20:51:29.195Z,26.30
2018-08-03T20:54:04.856Z,26.30
2018-08-03T20:56:33.049Z,26.20
2018-08-03T20:59:00.991Z,26.20
2018-08-03T21:01:28.808Z,26.20
2018-08-03T21:03:57.913Z,26.10
2018-08-03T21:06:25.818Z,26.10
2018-08-03T21:08:53.747Z,26.10
2018-08-03T21:11:21.806Z,26.10
2018-08-03T21:13:49.637Z,26.00
2018-08-03T21:16:21.604Z,25.90
2018-08-03T21:18:49.518Z,25.80
2018-08-03T21:21:18.586Z,25.60
2018-08-03T21:23:46.597Z,25.60
2018-08-03T21:26:15.720Z,25.60
2018-08-03T21:28:43.744Z,25.60
2018-08-03T21:31:11.707Z,25.50
2018-08-03T21:33:45.597Z,25.50
2018-08-03T21:36:13.496Z,25.40
2018-08-03T21:38:41.383Z,25.40
2018-08-03T21:41:09.301Z,25.40
2018-08-03T21:43:38.568Z,25.30
2018-08-03T21:46:07.077Z,25.10
2018-08-03T21:48:35.460Z,25.10
2018-08-03T21:51:04.558Z,25.10
2018-08-03T21:53:32.853Z,25.10
2018-08-03T21:56:00.770Z,25.10
2018-08-03T21:58:29.695Z,25.00
2018-08-03T22:00:57.669Z,25.10
2018-08-03T22:03:25.433Z,25.00
2018-08-03T22:05:53.496Z,25.00
2018-08-03T22:08:21.141Z,25.00
2018-08-03T22:10:48.969Z,25.00
2018-08-03T22:13:16.757Z,25.10
2018-08-03T22:15:46.501Z,25.10
2018-08-03T22:18:14.445Z,25.00
2018-08-03T22:20:42.231Z,25.00
2018-08-03T22:23:10.129Z,24.90
2018-08-03T22:25:38.041Z,24.90
2018-08-03T22:28:18.464Z,24.80
2018-08-03T22:30:46.289Z,24.80
2018-08-03T22:33:14.020Z,24.70
2018-08-03T22:35:52.947Z,24.70
2018-08-03T22:38:20.724Z,24.60
2018-08-03T22:41:01.614Z,24.50
2018-08-03T22:43:29.338Z,24.50
2018-08-03T22:45:57.009Z,24.60
2018-08-03T22:48:24.847Z,24.50
2018-08-03T22:50:52.662Z,24.50
2018-08-03T22:53:20.492Z,24.40
2018-08-03T22:55:49.337Z,24.40
2018-08-03T22:58:17.114Z,24.40
2018-08-03T23:00:44.933Z,24.30
2018-08-03T23:03:12.692Z,24.20
2018-08-03T23:05:40.491Z,24.20
2018-08-03T23:08:08.484Z,24.20
2018-08-03T23:10:36.216Z,24.10
2018-08-03T23:13:03.997Z,24.00
2018-08-03T23:15:31.773Z,24.00
2018-08-03T23:17:59.550Z,23.90
2018-08-03T23:20:27.325Z,23.90
2018-08-03T23:22:55.105Z,23.90
2018-08-03T23:25:39.893Z,23.80
2018-08-03T23:28:07.666Z,23.90
2018-08-03T23:30:35.481Z,23.90
2018-08-03T23:33:03.343Z,23.80
2018-08-03T23:35:31.094Z,23.70
2018-08-03T23:37:58.799Z,23.70
2018-08-03T23:40:26.721Z,23.70
2018-08-03T23:45:22.391Z,23.50
2018-08-03T23:47:50.361Z,23.50
2018-08-03T23:52:48.050Z,23.40
2018-08-03T23:55:16.211Z,23.40
2018-08-03T23:57:49.958Z,23.40
